Time;durP1;ratioP1;P1;durP2;ratioP2;P2;SDS_P1;SDS_P2;PMS_P1;PMS_P2;Temp;Humidity;BMP_temperature;BMP_pressure;BME280_temperature;BME280_humidity;BME280_pressure;Samples;Min_cycle;Max_cycle;Signal;HPM_P1;HPM_P2
2022/02/22 00:02:19;;;;;;;0.65;0.32;;;18.70;45.70;;;;;;6147820;29;20031;-67
2022/02/22 00:05:19;;;;;;;1.08;0.52;;;18.70;45.70;;;;;;6147948;29;20023;-67
2022/02/22 00:08:20;;;;;;;1.33;0.40;;;18.70;45.80;;;;;;6167646;28;20081;-67
2022/02/22 00:11:22;;;;;;;1.58;0.63;;;18.60;45.70;;;;;;6172164;28;20034;-67
2022/02/22 00:14:22;;;;;;;1.05;0.40;;;18.70;45.80;;;;;;6171902;28;20030;-67
2022/02/22 00:17:22;;;;;;;0.88;0.40;;;18.60;45.70;;;;;;6171503;28;20104;-67
2022/02/22 00:20:23;;;;;;;0.60;0.40;;;18.60;46.40;;;;;;6171361;28;20461;-67
2022/02/22 00:23:24;;;;;;;1.70;0.55;;;18.70;45.80;;;;;;6171098;28;20030;-67
2022/02/22 00:26:24;;;;;;;0.93;0.40;;;18.60;45.70;;;;;;6171162;28;20054;-66
2022/02/22 00:29:25;;;;;;;1.70;0.47;;;18.70;45.80;;;;;;6171394;28;20426;-67
2022/02/22 00:32:25;;;;;;;1.10;0.40;;;18.60;45.80;;;;;;6167087;28;20031;-67
2022/02/22 00:35:26;;;;;;;1.20;0.50;;;18.60;45.80;;;;;;6147160;28;20122;-67
2022/02/22 00:38:26;;;;;;;1.30;0.63;;;18.60;45.80;;;;;;6147281;28;20051;-67
2022/02/22 00:41:27;;;;;;;2.58;0.50;;;18.60;45.80;;;;;;6146919;28;20401;-67
2022/02/22 00:44:29;;;;;;;1.13;0.45;;;18.60;45.80;;;;;;6146991;29;20023;-67
2022/02/22 00:47:29;;;;;;;0.47;0.30;;;18.70;45.90;;;;;;6146799;29;20074;-67
2022/02/22 00:50:30;;;;;;;1.73;0.50;;;18.60;45.80;;;;;;6146675;29;20027;-67
2022/02/22 00:53:31;;;;;;;1.38;0.50;;;18.60;45.80;;;;;;6146984;29;20023;-67
2022/02/22 01:04:38;;;;;;;;;;;18.60;45.80;;;;;;6147273;29;20106;-67
2022/02/22 01:11:36;;;;;;;1.30;0.65;;;18.60;45.80;;;;;;6170846;28;20027;-67
2022/02/22 01:14:37;;;;;;;1.42;0.60;;;18.60;45.90;;;;;;6170653;28;20035;-67
2022/02/22 01:17:38;;;;;;;1.13;0.40;;;18.60;45.80;;;;;;6170232;28;20482;-67
2022/02/22 01:20:38;;;;;;;1.05;0.40;;;18.60;45.80;;;;;;6169093;28;20035;-67
2022/02/22 01:23:39;;;;;;;1.73;0.50;;;18.60;45.90;;;;;;6170705;28;20034;-67
2022/02/22 01:26:39;;;;;;;1.27;0.40;;;18.60;45.90;;;;;;6169800;28;20501;-67
2022/02/22 01:29:40;;;;;;;1.27;0.60;;;18.60;45.90;;;;;;6169677;28;20398;-65
2022/02/22 01:32:40;;;;;;;1.45;0.32;;;18.60;45.90;;;;;;6163750;28;20028;-67
2022/02/22 01:35:41;;;;;;;1.38;0.40;;;18.60;45.90;;;;;;6146211;28;20443;-67
2022/02/22 01:38:41;;;;;;;1.63;0.40;;;18.60;45.90;;;;;;6145877;28;20536;-67
2022/02/22 01:41:46;;;;;;;0.77;0.30;;;18.60;45.90;;;;;;6144700;29;20452;-67
2022/02/22 01:44:48;;;;;;;0.60;0.28;;;18.60;45.90;;;;;;6144819;29;20241;-67
2022/02/22 01:47:48;;;;;;;0.88;0.40;;;18.60;46.00;;;;;;6145885;29;20521;-67
2022/02/22 01:50:49;;;;;;;1.48;0.65;;;18.60;45.90;;;;;;6146536;29;20253;-67
2022/02/22 01:53:49;;;;;;;1.05;0.52;;;18.60;46.00;;;;;;6145889;29;20117;-67
2022/02/22 01:56:50;;;;;;;0.82;0.40;;;18.60;45.90;;;;;;6145540;29;20055;-67
2022/02/22 01:59:52;;;;;;;0.77;0.40;;;18.60;45.90;;;;;;6145748;29;20034;-66
2022/02/22 02:02:53;;;;;;;0.73;0.32;;;18.60;45.90;;;;;;6167662;28;20039;-66
2022/02/22 02:05:54;;;;;;;1.70;0.40;;;18.60;45.90;;;;;;6169662;28;20482;-67
2022/02/22 02:08:55;;;;;;;0.55;0.30;;;18.60;46.00;;;;;;6169989;28;20086;-66
2022/02/22 02:11:58;;;;;;;0.77;0.40;;;18.60;46.00;;;;;;6169540;28;20117;-67
2022/02/22 02:14:58;;;;;;;0.70;0.30;;;18.60;46.00;;;;;;6170095;28;20103;-67
2022/02/22 02:17:59;;;;;;;0.75;0.40;;;18.60;46.00;;;;;;6169352;28;20116;-67
2022/02/22 02:21:00;;;;;;;0.63;0.38;;;18.60;46.00;;;;;;6169866;28;20439;-66
2022/02/22 02:24:27;;;;;;;0.40;0.40;;;18.60;46.00;;;;;;6169696;28;20039;-66
2022/02/22 02:27:28;;;;;;;1.42;0.63;;;18.60;46.00;;;;;;6167313;28;20058;-67
2022/02/22 02:30:29;;;;;;;1.63;0.50;;;18.60;46.00;;;;;;6169724;28;20031;-67
2022/02/22 02:33:29;;;;;;;0.82;0.35;;;18.60;46.00;;;;;;6156370;28;20423;-66
2022/02/22 02:36:32;;;;;;;0.70;0.43;;;18.60;46.00;;;;;;6145550;28;20028;-67
2022/02/22 02:39:32;;;;;;;0.60;0.40;;;18.60;46.20;;;;;;6145390;28;20035;-67
2022/02/22 02:42:33;;;;;;;0.60;0.40;;;18.60;46.10;;;;;;6145524;28;20082;-67
2022/02/22 02:45:33;;;;;;;1.10;0.40;;;18.60;46.10;;;;;;6147719;28;20038;-66
2022/02/22 02:48:35;;;;;;;0.70;0.40;;;18.60;46.10;;;;;;6150194;29;20035;-67
2022/02/22 02:51:36;;;;;;;1.92;0.75;;;18.60;46.10;;;;;;6150042;29;20034;-67
2022/02/22 02:54:37;;;;;;;1.00;0.50;;;18.60;46.10;;;;;;6149799;29;20062;-67
2022/02/22 02:57:38;;;;;;;2.03;0.77;;;18.60;46.10;;;;;;6149724;29;20031;-67
2022/02/22 03:00:39;;;;;;;1.10;0.47;;;18.60;46.10;;;;;;6149404;29;20031;-66
2022/02/22 03:03:39;;;;;;;0.60;0.30;;;18.60;46.10;;;;;;6149349;29;20028;-66
2022/02/22 03:06:40;;;;;;;1.30;0.65;;;18.60;46.10;;;;;;6155403;28;20482;-67
2022/02/22 03:09:40;;;;;;;1.25;0.38;;;18.60;46.10;;;;;;6173194;28;20072;-67
2022/02/22 03:12:41;;;;;;;0.55;0.40;;;18.60;46.10;;;;;;6173269;28;20034;-67
2022/02/22 03:15:41;;;;;;;2.25;0.50;;;18.60;46.10;;;;;;6172944;28;20027;-67
2022/02/22 03:18:45;;;;;;;1.00;0.50;;;18.60;46.20;;;;;;6173013;28;20443;-67
2022/02/22 03:21:46;;;;;;;1.25;0.40;;;18.60;46.10;;;;;;6172812;28;20549;-67
2022/02/22 03:24:48;;;;;;;1.50;0.50;;;18.60;46.10;;;;;;6169465;28;20031;-67
2022/02/22 03:27:48;;;;;;;1.20;0.60;;;18.60;46.20;;;;;;6172302;28;20418;-66
2022/02/22 03:30:49;;;;;;;1.05;0.45;;;18.60;46.20;;;;;;6172906;28;20053;-66
2022/02/22 03:33:52;;;;;;;0.93;0.40;;;18.60;46.20;;;;;;6157070;28;20031;-66
2022/02/22 03:36:53;;;;;;;1.58;0.50;;;18.60;46.10;;;;;;6148560;28;20027;-67
2022/02/22 03:39:53;;;;;;;0.70;0.50;;;18.60;46.20;;;;;;6148614;28;20097;-67
2022/02/22 03:42:54;;;;;;;0.88;0.38;;;18.60;46.10;;;;;;6148877;28;20023;-67
2022/02/22 03:45:55;;;;;;;1.63;0.40;;;18.60;46.20;;;;;;6148446;29;20459;-67
2022/02/22 03:48:55;;;;;;;1.02;0.30;;;18.60;46.20;;;;;;6148223;29;20031;-67
2022/02/22 03:51:56;;;;;;;1.13;0.50;;;18.60;46.20;;;;;;6148295;29;20028;-66
2022/02/22 03:54:56;;;;;;;1.52;0.50;;;18.60;46.20;;;;;;6147956;29;20534;-66
2022/02/22 03:57:57;;;;;;;0.82;0.40;;;18.60;46.10;;;;;;6146672;28;20179;-67
2022/02/22 04:00:58;;;;;;;1.48;0.70;;;18.60;46.10;;;;;;6147980;29;20248;-66
2022/02/22 04:03:59;;;;;;;0.80;0.40;;;18.60;46.20;;;;;;6147999;29;20023;-67
2022/02/22 04:06:59;;;;;;;2.47;0.45;;;18.60;46.20;;;;;;6156971;28;20359;-66
2022/02/22 04:10:00;;;;;;;2.22;0.50;;;18.60;46.20;;;;;;6171615;28;20030;-66
2022/02/22 04:13:00;;;;;;;1.40;0.45;;;18.60;46.10;;;;;;6171972;28;20077;-67
2022/02/22 04:16:01;;;;;;;1.45;0.70;;;18.60;46.20;;;;;;6171970;28;20054;-67
2022/02/22 04:19:01;;;;;;;1.17;0.50;;;18.60;46.20;;;;;;6171511;28;20498;-67
2022/02/22 04:22:02;;;;;;;2.40;0.80;;;18.60;46.20;;;;;;6171691;28;20033;-67
2022/02/22 04:25:04;;;;;;;0.68;0.40;;;18.60;46.00;;;;;;6171296;28;20034;-67
2022/02/22 04:28:05;;;;;;;2.13;0.60;;;18.60;46.10;;;;;;6171624;28;20122;-65
2022/02/22 04:31:06;;;;;;;3.13;0.80;;;18.60;46.10;;;;;;6171150;28;20031;-66
2022/02/22 04:34:08;;;;;;;2.50;0.80;;;18.60;46.00;;;;;;6153333;28;20556;-67
2022/02/22 04:37:15;;;;;;;1.35;0.77;;;18.60;46.00;;;;;;6147710;28;20019;-66
2022/02/22 04:40:15;;;;;;;3.17;0.75;;;18.60;46.00;;;;;;6147273;28;20094;-67
2022/02/22 04:43:16;;;;;;;2.42;0.70;;;18.60;46.00;;;;;;6146618;28;20458;-67
2022/02/22 04:46:16;;;;;;;2.03;0.60;;;18.60;46.00;;;;;;6147145;29;20031;-67
2022/02/22 04:49:17;;;;;;;2.17;0.70;;;18.60;46.00;;;;;;6146752;29;20035;-66
2022/02/22 04:52:18;;;;;;;1.30;0.73;;;18.60;46.10;;;;;;6146981;29;20059;-67
2022/02/22 04:55:19;;;;;;;1.88;0.77;;;18.60;46.00;;;;;;6163709;28;20081;-67
2022/02/22 04:58:20;;;;;;;1.95;0.77;;;18.60;46.00;;;;;;6170495;28;20446;-67
2022/02/22 05:01:20;;;;;;;2.20;0.55;;;18.60;46.00;;;;;;6170335;28;20043;-68
2022/02/22 05:04:21;;;;;;;2.17;0.90;;;18.60;46.00;;;;;;6170664;28;20065;-67
2022/02/22 05:07:21;;;;;;;1.38;0.60;;;18.60;45.90;;;;;;6170301;28;20037;-66
2022/02/22 05:10:22;;;;;;;2.47;0.80;;;18.60;46.00;;;;;;6170381;28;20513;-67
2022/02/22 05:13:22;;;;;;;1.60;0.65;;;18.60;46.00;;;;;;6170458;28;20026;-67
2022/02/22 05:16:23;;;;;;;2.65;0.70;;;18.60;46.00;;;;;;6169978;28;20149;-67
2022/02/22 05:19:23;;;;;;;3.65;1.02;;;18.60;46.00;;;;;;6170701;28;20046;-67
2022/02/22 05:22:24;;;;;;;1.67;0.70;;;18.60;46.00;;;;;;6170696;28;20442;-66
2022/02/22 05:25:25;;;;;;;2.13;0.70;;;18.60;46.00;;;;;;6170141;28;20106;-67
2022/02/22 05:28:26;;;;;;;3.20;0.85;;;18.60;46.00;;;;;;6169925;28;20027;-66
2022/02/22 05:31:26;;;;;;;3.15;0.90;;;18.60;46.00;;;;;;6170186;28;20026;-67
2022/02/22 05:34:27;;;;;;;2.88;1.08;;;18.60;46.00;;;;;;6149182;28;20038;-67
2022/02/22 05:37:29;;;;;;;2.35;0.75;;;18.60;46.00;;;;;;6145956;28;20077;-67
2022/02/22 05:40:29;;;;;;;1.70;0.73;;;18.60;46.00;;;;;;6146120;28;20047;-66
2022/02/22 05:43:30;;;;;;;4.60;0.98;;;18.60;45.90;;;;;;6161761;28;20023;-67
2022/02/22 05:46:30;;;;;;;3.75;0.80;;;18.60;46.00;;;;;;6169819;28;20030;-66
2022/02/22 05:49:31;;;;;;;2.20;0.80;;;18.60;46.00;;;;;;6169823;28;20470;-67
2022/02/22 05:52:31;;;;;;;3.75;0.70;;;18.60;46.00;;;;;;6169869;28;20438;-67
2022/02/22 05:55:32;;;;;;;3.53;1.20;;;18.60;46.00;;;;;;6169437;28;20050;-66
2022/02/22 05:58:33;;;;;;;3.45;0.82;;;18.60;46.00;;;;;;6169754;28;20073;-67
2022/02/22 06:01:34;;;;;;;3.40;0.93;;;18.60;46.00;;;;;;6163553;28;20139;-67
2022/02/22 06:04:34;;;;;;;2.05;0.70;;;18.60;46.00;;;;;;6145810;28;20102;-66
2022/02/22 06:07:35;;;;;;;2.35;0.63;;;18.60;46.00;;;;;;6159137;28;20035;-63
2022/02/22 06:10:35;;;;;;;3.47;0.80;;;18.60;46.00;;;;;;6170620;28;20094;-66
2022/02/22 06:13:36;;;;;;;4.75;1.08;;;18.60;45.90;;;;;;6169445;28;20058;-67
2022/02/22 06:16:37;;;;;;;3.90;1.10;;;18.60;46.00;;;;;;6169006;28;20043;-66
2022/02/22 06:19:37;;;;;;;3.05;0.93;;;18.60;46.00;;;;;;6156671;28;20063;-67
2022/02/22 06:22:39;;;;;;;3.10;0.95;;;18.60;45.90;;;;;;6170312;28;20514;-66
2022/02/22 06:25:39;;;;;;;4.60;1.35;;;18.60;45.90;;;;;;6172131;28;20062;-66
2022/02/22 06:28:40;;;;;;;6.03;0.88;;;18.60;46.00;;;;;;6156268;28;20108;-66
2022/02/22 06:31:40;;;;;;;6.75;1.30;;;18.60;46.10;;;;;;6149531;28;20509;-66
2022/02/22 06:34:42;;;;;;;5.55;1.60;;;18.60;45.30;;;;;;6170943;28;20522;-66
2022/02/22 06:37:42;;;;;;;3.75;1.02;;;18.60;45.30;;;;;;6187755;28;20466;-66
2022/02/22 06:40:43;;;;;;;6.32;1.67;;;18.60;45.70;;;;;;6181156;28;20125;-67
2022/02/22 06:43:43;;;;;;;3.47;1.05;;;18.60;45.70;;;;;;6151558;28;20035;-66
2022/02/22 06:46:44;;;;;;;5.90;1.30;;;18.60;45.80;;;;;;6148578;29;20114;-67
2022/02/22 06:49:44;;;;;;;5.82;1.55;;;18.60;45.80;;;;;;6148546;29;20059;-66
2022/02/22 06:52:45;;;;;;;5.95;1.50;;;18.60;45.80;;;;;;6160496;28;20093;-67
2022/02/22 06:55:46;;;;;;;3.65;1.25;;;18.60;45.80;;;;;;6172357;28;20113;-67
2022/02/22 06:58:46;;;;;;;5.22;1.48;;;18.60;45.90;;;;;;6171651;28;20122;-67
2022/02/22 07:01:47;;;;;;;5.43;1.70;;;18.60;45.90;;;;;;6168433;28;20053;-66
2022/02/22 07:04:47;;;;;;;4.65;1.65;;;18.60;46.00;;;;;;6174537;28;20031;-66
2022/02/22 07:07:49;;;;;;;4.95;1.50;;;18.60;46.00;;;;;;6173259;28;20034;-66
2022/02/22 07:10:50;;;;;;;3.75;1.50;;;18.60;46.00;;;;;;6174623;28;20027;-66
2022/02/22 07:13:50;;;;;;;3.67;1.25;;;18.60;46.00;;;;;;6174230;28;20042;-66
2022/02/22 07:16:51;;;;;;;4.53;1.50;;;18.60;46.00;;;;;;6164243;28;20088;-67
2022/02/22 07:19:51;;;;;;;6.90;1.45;;;18.60;46.10;;;;;;6159576;28;20098;-66
2022/02/22 07:22:55;;;;;;;4.15;1.50;;;18.60;46.10;;;;;;6173808;28;20146;-66
2022/02/22 07:25:55;;;;;;;5.97;1.42;;;18.60;46.00;;;;;;6173627;28;20226;-66
2022/02/22 07:28:56;;;;;;;4.28;1.33;;;18.60;46.10;;;;;;6188695;28;20015;-66
2022/02/22 07:31:56;;;;;;;5.07;1.55;;;18.60;46.10;;;;;;6157104;28;20509;-66
2022/02/22 07:34:57;;;;;;;4.43;1.50;;;18.60;46.10;;;;;;6173447;28;20027;-67
2022/02/22 07:37:57;;;;;;;4.07;1.30;;;18.60;46.10;;;;;;6173227;28;20478;-66
2022/02/22 07:40:58;;;;;;;4.25;1.40;;;18.60;46.10;;;;;;6173069;28;20042;-66
2022/02/22 07:43:59;;;;;;;4.28;1.30;;;18.60;46.10;;;;;;6149689;28;20047;-66
2022/02/22 07:46:59;;;;;;;4.03;1.40;;;18.60;46.10;;;;;;6149119;29;20062;-66
2022/02/22 07:50:00;;;;;;;4.25;1.55;;;18.60;46.10;;;;;;6149061;29;20102;-66
2022/02/22 07:53:01;;;;;;;7.10;1.67;;;18.60;46.10;;;;;;6140246;28;20703;-65
2022/02/22 07:56:04;;;;;;;5.18;1.45;;;18.60;46.10;;;;;;6195629;28;20066;-67
2022/02/22 07:59:05;;;;;;;3.80;1.60;;;18.60;46.20;;;;;;6160741;28;20039;-66
2022/02/22 08:02:06;;;;;;;6.45;1.67;;;18.60;46.10;;;;;;6149492;28;20070;-66
2022/02/22 08:05:07;;;;;;;5.30;1.50;;;18.60;46.00;;;;;;6148049;28;20103;-67
2022/02/22 08:08:09;;;;;;;4.10;1.35;;;18.60;46.10;;;;;;6166709;28;20049;-65
2022/02/22 08:11:10;;;;;;;4.53;1.33;;;18.60;46.20;;;;;;6172514;28;20030;-66
2022/02/22 08:14:10;;;;;;;4.93;1.63;;;18.60;46.10;;;;;;6172134;28;20029;-66
2022/02/22 08:17:11;;;;;;;3.85;1.40;;;18.60;46.20;;;;;;6172494;28;20019;-67
2022/02/22 08:20:11;;;;;;;4.68;1.60;;;18.60;46.20;;;;;;6172222;28;20490;-67
2022/02/22 08:23:12;;;;;;;5.25;1.63;;;18.60;46.10;;;;;;6172096;28;21732;-66
2022/02/22 08:26:12;;;;;;;4.15;1.50;;;18.60;46.10;;;;;;6172117;28;20026;-67
2022/02/22 08:29:13;;;;;;;8.80;1.60;;;18.60;46.10;;;;;;6144504;28;20034;-67
2022/02/22 08:32:13;;;;;;;4.70;1.77;;;18.60;46.20;;;;;;6172155;28;20494;-67
2022/02/22 08:35:14;;;;;;;3.05;1.45;;;18.60;46.20;;;;;;6172467;28;20336;-66
2022/02/22 08:38:15;;;;;;;3.25;1.20;;;18.60;46.20;;;;;;6172222;28;20496;-66
2022/02/22 08:41:16;;;;;;;3.55;1.35;;;18.60;46.20;;;;;;6170717;28;20031;-67
2022/02/22 08:44:17;;;;;;;4.00;1.40;;;18.60;46.20;;;;;;6147489;28;20030;-66
2022/02/22 08:47:17;;;;;;;4.68;1.50;;;18.60;46.30;;;;;;6165389;28;20031;-66
2022/02/22 08:50:18;;;;;;;5.15;1.50;;;18.60;46.30;;;;;;6170998;28;20552;-66
2022/02/22 08:53:19;;;;;;;6.00;1.77;;;18.60;46.30;;;;;;6172364;28;20077;-66
2022/02/22 08:56:19;;;;;;;4.50;1.45;;;18.70;46.40;;;;;;6171877;28;20362;-66
2022/02/22 08:59:20;;;;;;;3.38;1.38;;;18.60;46.30;;;;;;6162371;28;20038;-66
2022/02/22 09:02:20;;;;;;;6.38;1.60;;;18.60;46.30;;;;;;6171225;28;20058;-65
2022/02/22 09:05:21;;;;;;;6.57;2.00;;;18.60;46.30;;;;;;6172023;28;20111;-65
2022/02/22 09:08:22;;;;;;;10.05;2.45;;;18.60;45.30;;;;;;6170683;28;20022;-66
2022/02/22 09:11:22;;;;;;;9.23;2.45;;;18.60;44.60;;;;;;6163836;28;20093;-67
2022/02/22 09:14:23;;;;;;;12.70;2.95;;;18.60;43.90;;;;;;6171806;28;20377;-67
2022/02/22 09:17:24;;;;;;;9.43;3.13;;;18.60;42.90;;;;;;6171187;28;20027;-67
2022/02/22 09:20:24;;;;;;;12.43;3.30;;;18.60;42.60;;;;;;6170551;28;20065;-67
2022/02/22 09:23:25;;;;;;;12.52;3.20;;;18.60;42.70;;;;;;6171422;28;20026;-67
2022/02/22 09:26:25;;;;;;;6.20;2.33;;;18.60;42.90;;;;;;6171048;28;20482;-66
2022/02/22 09:29:26;;;;;;;11.43;2.35;;;18.60;43.20;;;;;;6171517;28;20031;-67
2022/02/22 09:32:27;;;;;;;15.43;3.30;;;18.60;43.40;;;;;;6165907;28;20498;-67
2022/02/22 09:35:28;;;;;;;7.88;2.20;;;18.60;43.70;;;;;;6147646;28;20027;-67
2022/02/22 09:38:29;;;;;;;8.57;2.60;;;18.60;44.00;;;;;;6146786;28;20062;-66
2022/02/22 09:41:29;;;;;;;7.35;2.40;;;18.60;44.20;;;;;;6146773;28;20066;-66
2022/02/22 09:44:30;;;;;;;10.80;2.65;;;18.60;44.20;;;;;;6147101;29;20114;-68
2022/02/22 09:47:31;;;;;;;7.32;2.53;;;18.60;44.30;;;;;;6147165;29;20035;-67
2022/02/22 09:50:34;;;;;;;8.48;2.08;;;18.60;44.30;;;;;;6146334;29;20074;-67
2022/02/22 09:53:37;;;;;;;8.43;2.63;;;18.60;44.40;;;;;;6145972;28;20035;-67
2022/02/22 09:56:44;;;;;;;10.57;2.85;;;18.60;44.60;;;;;;6151269;29;20051;-66
2022/02/22 09:59:45;;;;;;;8.30;2.67;;;18.60;44.60;;;;;;6151177;29;20321;-67
2022/02/22 10:02:47;;;;;;;8.60;2.10;;;18.60;44.80;;;;;;6152314;29;20467;-67
2022/02/22 10:05:55;;;;;;;5.90;2.05;;;18.60;44.80;;;;;;6151868;29;20031;-66
2022/02/22 10:08:56;;;;;;;8.57;2.30;;;18.60;44.80;;;;;;6175216;28;20034;-66
2022/02/22 10:11:57;;;;;;;10.30;2.75;;;18.60;44.70;;;;;;6174963;28;20085;-66
2022/02/22 10:14:58;;;;;;;4.68;1.80;;;18.60;44.80;;;;;;6175946;28;20087;-66
2022/02/22 10:18:00;;;;;;;5.82;1.80;;;18.60;44.90;;;;;;6174927;28;20074;-66
2022/02/22 10:21:02;;;;;;;5.95;1.70;;;18.60;44.90;;;;;;6175723;28;20037;-67
2022/02/22 10:24:10;;;;;;;15.07;2.30;;;18.60;44.90;;;;;;6165627;28;20431;-66
2022/02/22 10:27:11;;;;;;;6.97;2.17;;;18.60;45.00;;;;;;6151485;28;20031;-67
2022/02/22 10:30:41;;;;;;;7.93;2.20;;;18.60;45.70;;;;;;6150627;28;20535;-67
2022/02/22 10:33:46;;;;;;;6.70;2.00;;;18.60;45.10;;;;;;6165522;28;20027;-67
2022/02/22 10:36:51;;;;;;;8.77;1.67;;;18.60;45.10;;;;;;6175080;28;20029;-66
2022/02/22 10:40:00;;;;;;;7.85;2.40;;;18.60;45.20;;;;;;6173757;28;20054;-66
2022/02/22 10:43:01;;;;;;;4.90;1.77;;;18.60;45.10;;;;;;6159237;28;20027;-67
2022/02/22 10:46:04;;;;;;;5.50;1.60;;;18.60;45.30;;;;;;6150682;29;20027;-66
2022/02/22 10:49:08;;;;;;;7.78;1.88;;;18.60;45.20;;;;;;6150267;29;20379;-66
2022/02/22 10:52:11;;;;;;;7.40;1.70;;;18.60;45.30;;;;;;6150631;29;20027;-67
2022/02/22 10:55:11;;;;;;;8.02;1.67;;;18.60;45.30;;;;;;6173616;28;20533;-67
2022/02/22 10:58:12;;;;;;;4.80;2.00;;;18.60;45.30;;;;;;6172660;28;20035;-67
2022/02/22 11:01:16;;;;;;;5.65;2.05;;;18.60;45.40;;;;;;6174307;28;20085;-67
2022/02/22 11:04:17;;;;;;;4.88;1.70;;;18.60;45.40;;;;;;6174745;28;20124;-66
2022/02/22 11:07:18;;;;;;;4.93;1.67;;;18.60;45.40;;;;;;6173370;28;20088;-67
2022/02/22 11:10:24;;;;;;;5.28;1.77;;;18.60;45.50;;;;;;6172837;28;20034;-66
2022/02/22 11:13:27;;;;;;;3.67;1.67;;;18.60;45.50;;;;;;6174466;28;20038;-67
2022/02/22 11:16:44;;;;;;;7.13;1.70;;;18.60;45.50;;;;;;6173733;28;20561;-67
2022/02/22 11:19:45;;;;;;;5.28;1.50;;;18.60;45.60;;;;;;6172548;28;20379;-66
2022/02/22 11:22:55;;;;;;;5.55;1.63;;;18.60;45.60;;;;;;6173749;28;20031;-64
2022/02/22 11:26:16;;;;;;;7.65;1.70;;;18.60;45.50;;;;;;6150102;28;20423;-67
2022/02/22 11:29:19;;;;;;;4.38;1.67;;;18.60;45.60;;;;;;6151245;28;20110;-66
2022/02/22 11:32:21;;;;;;;5.35;1.50;;;18.60;45.60;;;;;;6173353;28;20015;-67
2022/02/22 11:35:22;;;;;;;5.97;1.45;;;18.60;45.60;;;;;;6173851;28;20027;-67
2022/02/22 11:38:25;;;;;;;4.70;1.88;;;18.60;45.70;;;;;;6173053;28;20035;-66
2022/02/22 11:41:28;;;;;;;5.07;1.88;;;18.70;45.70;;;;;;6170592;28;20035;-67
2022/02/22 11:44:28;;;;;;;5.22;1.60;;;18.70;45.80;;;;;;6149377;29;20443;-67
2022/02/22 11:47:30;;;;;;;6.32;1.50;;;18.70;45.80;;;;;;6149351;29;20075;-67
2022/02/22 11:50:39;;;;;;;5.63;1.15;;;18.70;45.80;;;;;;6148634;29;20034;-67
2022/02/22 11:53:41;;;;;;;3.83;1.52;;;18.70;45.80;;;;;;6149804;29;20106;-66
2022/02/22 11:56:43;;;;;;;4.05;1.40;;;18.70;45.80;;;;;;6148807;29;20117;-67
2022/02/22 12:00:03;;;;;;;3.53;1.52;;;18.70;45.80;;;;;;6148593;29;20561;-67
2022/02/22 12:03:11;;;;;;;3.80;1.45;;;18.60;45.70;;;;;;6172834;28;20027;-67
2022/02/22 12:06:12;;;;;;;4.32;1.02;;;18.70;45.80;;;;;;6173003;28;20030;-66
2022/02/22 12:09:13;;;;;;;3.53;1.48;;;18.70;45.80;;;;;;6172378;28;20541;-67
2022/02/22 12:12:19;;;;;;;3.78;1.20;;;18.70;45.80;;;;;;6172512;28;20035;-67
2022/02/22 12:15:30;;;;;;;5.18;1.40;;;18.70;45.80;;;;;;6168699;28;20027;-67
2022/02/22 12:18:30;;;;;;;4.00;1.48;;;18.70;45.80;;;;;;6170571;28;20088;-67
2022/02/22 12:21:31;;;;;;;4.85;1.60;;;18.70;45.90;;;;;;6166488;28;20042;-67
2022/02/22 12:24:32;;;;;;;5.80;1.75;;;18.70;45.80;;;;;;6163392;28;20038;-67
2022/02/22 12:27:34;;;;;;;4.45;1.25;;;18.70;45.70;;;;;;6171676;28;20045;-67
2022/02/22 12:30:37;;;;;;;9.73;2.00;;;18.70;45.80;;;;;;6170518;28;20034;-67
2022/02/22 12:33:37;;;;;;;6.80;1.58;;;18.70;45.80;;;;;;6171542;28;20034;-65
2022/02/22 12:36:44;;;;;;;10.07;2.03;;;18.70;45.80;;;;;;6172068;28;20069;-67
2022/02/22 12:39:45;;;;;;;16.00;2.50;;;18.60;44.60;;;;;;6171554;28;20042;-65
2022/02/22 12:42:45;;;;;;;6.60;2.20;;;18.60;44.40;;;;;;6171437;28;20023;-65
2022/02/22 12:45:49;;;;;;;9.23;2.00;;;18.70;44.80;;;;;;6171662;28;20026;-67
2022/02/22 12:48:51;;;;;;;7.45;2.22;;;18.70;45.00;;;;;;6171031;28;20035;-67
2022/02/22 12:52:03;;;;;;;7.50;2.15;;;18.70;45.10;;;;;;6170914;28;20037;-67
2022/02/22 12:55:08;;;;;;;8.18;1.92;;;18.70;45.10;;;;;;6171642;28;20046;-66
2022/02/22 12:58:09;;;;;;;6.43;1.90;;;18.70;45.10;;;;;;6171072;28;20070;-67
2022/02/22 13:01:17;;;;;;;9.45;2.28;;;18.70;45.20;;;;;;6170364;28;20027;-67
2022/02/22 13:04:22;;;;;;;4.68;1.90;;;18.70;45.20;;;;;;6171488;28;20035;-66
2022/02/22 13:07:26;;;;;;;7.43;1.98;;;18.70;45.30;;;;;;6170757;28;20370;-67
2022/02/22 13:10:27;;;;;;;4.32;2.00;;;18.70;45.30;;;;;;6170076;28;20486;-65
2022/02/22 13:13:29;;;;;;;7.25;1.85;;;18.70;45.20;;;;;;6170326;28;20139;-67
2022/02/22 13:16:29;;;;;;;6.05;1.80;;;18.70;45.20;;;;;;6169608;28;20125;-67
2022/02/22 13:19:34;;;;;;;8.75;2.10;;;18.70;45.30;;;;;;6168028;28;20468;-67
2022/02/22 13:22:39;;;;;;;8.45;2.05;;;18.70;45.30;;;;;;6169447;28;20027;-66
2022/02/22 13:25:42;;;;;;;11.27;3.38;;;18.70;45.40;;;;;;6169549;28;20546;-65
2022/02/22 13:28:44;;;;;;;9.48;4.13;;;18.70;45.40;;;;;;6168579;28;20061;-67
2022/02/22 13:31:44;;;;;;;14.27;6.35;;;18.70;45.50;;;;;;6157407;28;20456;-65
2022/02/22 13:34:47;;;;;;;15.55;5.40;;;18.80;46.10;;;;;;6167920;28;20027;-68
2022/02/22 13:37:48;;;;;;;13.32;7.65;;;18.80;45.90;;;;;;6176716;28;20030;-65
2022/02/22 13:40:49;;;;;;;14.23;8.45;;;18.90;45.60;;;;;;6191533;28;20088;-68
2022/02/22 13:43:49;;;;;;;10.77;6.93;;;19.00;45.70;;;;;;6170493;28;20569;-66
2022/02/22 13:46:52;;;;;;;11.93;7.18;;;19.00;45.50;;;;;;6169367;28;20034;-67
2022/02/22 13:49:53;;;;;;;10.02;6.43;;;19.10;45.50;;;;;;6168614;28;20085;-67
2022/02/22 13:53:10;;;;;;;10.70;7.10;;;19.20;45.40;;;;;;6168850;28;20039;-66
2022/02/22 13:56:11;;;;;;;13.82;7.35;;;19.00;45.20;;;;;;6169082;28;20562;-67
2022/02/22 13:59:12;;;;;;;14.45;7.32;;;19.00;45.30;;;;;;6168802;28;20038;-67
2022/02/22 14:02:26;;;;;;;14.23;7.20;;;19.00;45.20;;;;;;6168551;28;20022;-67
2022/02/22 14:05:27;;;;;;;7.28;4.30;;;19.00;45.20;;;;;;6169524;28;20050;-67
2022/02/22 14:08:27;;;;;;;11.88;6.32;;;19.00;45.60;;;;;;6159629;28;20405;-67
2022/02/22 14:11:40;;;;;;;9.50;5.82;;;19.00;45.60;;;;;;6167965;28;20090;-67
2022/02/22 14:14:43;;;;;;;12.07;5.93;;;19.00;45.60;;;;;;6166847;28;20478;-67
2022/02/22 14:17:44;;;;;;;14.32;5.75;;;18.90;45.70;;;;;;6168987;28;20031;-67
2022/02/22 14:20:45;;;;;;;8.90;5.65;;;18.90;45.70;;;;;;6167615;28;20035;-67
2022/02/22 14:23:45;;;;;;;10.00;5.75;;;18.90;45.70;;;;;;6158270;28;20019;-67
2022/02/22 14:26:46;;;;;;;10.63;5.65;;;18.90;45.70;;;;;;6160497;28;20026;-68
2022/02/22 14:29:46;;;;;;;9.27;5.57;;;18.90;45.80;;;;;;6167027;28;20027;-65
2022/02/22 14:32:47;;;;;;;9.35;4.88;;;18.90;45.80;;;;;;6168093;28;20023;-67
2022/02/22 14:35:48;;;;;;;10.38;5.97;;;18.90;45.90;;;;;;6168666;28;20375;-66
2022/02/22 14:38:49;;;;;;;10.38;5.30;;;18.90;45.90;;;;;;6148604;28;20046;-67
2022/02/22 14:41:49;;;;;;;11.80;5.60;;;18.90;45.90;;;;;;6185980;28;20037;-67
2022/02/22 14:44:50;;;;;;;9.20;4.75;;;18.90;45.90;;;;;;6172650;28;20046;-67
2022/02/22 14:47:50;;;;;;;8.63;4.45;;;18.90;46.00;;;;;;6172991;28;20034;-67
2022/02/22 14:50:52;;;;;;;8.95;4.50;;;18.90;46.00;;;;;;6172318;28;20031;-66
2022/02/22 14:53:52;;;;;;;7.53;4.40;;;18.80;45.90;;;;;;6172743;28;20069;-67
2022/02/22 14:56:53;;;;;;;8.75;4.97;;;18.90;46.00;;;;;;6172404;28;20413;-67
2022/02/22 14:59:53;;;;;;;11.98;4.82;;;18.90;46.00;;;;;;6171831;28;20560;-67
2022/02/22 15:02:54;;;;;;;11.45;4.90;;;18.80;46.00;;;;;;6172761;28;20034;-67
2022/02/22 15:05:55;;;;;;;7.93;4.93;;;18.80;46.00;;;;;;6172850;28;20061;-67
2022/02/22 15:08:55;;;;;;;6.18;4.30;;;18.80;46.00;;;;;;6171654;28;20098;-67
2022/02/22 15:11:56;;;;;;;9.75;4.53;;;18.80;46.00;;;;;;6171862;28;20038;-67
2022/02/22 15:14:56;;;;;;;6.57;4.03;;;18.80;46.00;;;;;;6172356;28;20390;-65
2022/02/22 15:17:57;;;;;;;9.70;4.85;;;18.80;46.00;;;;;;6171499;28;20035;-67
2022/02/22 15:20:57;;;;;;;5.57;3.80;;;18.80;46.70;;;;;;6171101;28;20035;-67
2022/02/22 15:23:58;;;;;;;6.63;4.03;;;18.80;46.00;;;;;;6166976;28;20435;-67
2022/02/22 15:26:58;;;;;;;6.68;3.95;;;18.80;46.10;;;;;;6171103;28;20033;-67
2022/02/22 15:30:00;;;;;;;6.35;4.00;;;18.80;46.10;;;;;;6171762;28;20034;-67
2022/02/22 15:33:00;;;;;;;9.82;4.20;;;18.80;46.10;;;;;;6171506;28;20386;-67
2022/02/22 15:36:01;;;;;;;6.68;4.18;;;18.80;46.10;;;;;;6171865;28;20110;-67
2022/02/22 15:39:03;;;;;;;6.32;3.60;;;18.80;46.10;;;;;;6171582;28;20085;-67
2022/02/22 15:42:05;;;;;;;5.15;3.38;;;18.80;46.10;;;;;;6171441;28;20331;-67
2022/02/22 15:45:06;;;;;;;6.03;3.88;;;18.80;46.10;;;;;;6171898;28;20031;-67
2022/02/22 15:48:06;;;;;;;5.40;3.67;;;18.80;46.10;;;;;;6171512;28;20034;-67
2022/02/22 15:51:07;;;;;;;5.70;3.55;;;18.80;46.10;;;;;;6171229;28;20089;-66
2022/02/22 15:54:07;;;;;;;6.18;3.47;;;18.80;46.10;;;;;;6171393;28;20035;-67
2022/02/22 15:57:08;;;;;;;8.55;3.78;;;18.80;46.10;;;;;;6171419;28;20417;-67